Yokota Air Base, Japan

7:15 AM JST on July 08, 2015 (GMT +0900)
Yokota Air Base | | Change Station
CLOSE
Current Station
Airport
Location: Yokota AB,
Elevation: 456 ft
Nearby Weather Stations

Elev 456 ft 35.75 °N, 139.35 °E | Updated 16 minutes ago

Scattered Clouds
Scattered Clouds
73 °F
Feels Like 73 °F
N
4
Wind Variable Wind from NNW

Today
High -- | Low -- °F
--% Chance of Precip.
Yesterday
High -- | Low -- °F
Precip. -- in
4:33 AM 7:01 PM
Waning Gibbous, 61% visible
Pressure 30.03 in
Visibility 9.0 miles
Clouds Few 900 ft
Scattered Clouds 20000 ft
Dew Point 68 °F
Humidity 83%
Rainfall 0.00 in
Snow Depth Not available.
UV 2 out of 12
Pollen Not available.
Air Quality Not available.
Flu Activity Not available.
SPECI RJTY 072159Z AUTO 34003KT 9SM FEW009 SCT200 23/20 A3003 RMK AO2

More Conditions Fewer Conditions

Pressure 30.03 in
Visibility 9.0 miles
Clouds Few 900 ft
Scattered Clouds 20000 ft
Dew Point 68 °F
Humidity 83%
Rainfall 0.00 in
Snow Depth Not available.
UV 2 out of 12
Pollen Not available.
Air Quality Not available.
Flu Activity Not available.
SPECI RJTY 072159Z AUTO 34003KT 9SM FEW009 SCT200 23/20 A3003 RMK AO2

More Conditions Fewer Conditions

10-Day Weather Forecast

×

Almanac

Astronomy

Jul. 08, 2015 Rise Set
Actual Time
Civil Twilight
Nautical Twilight
Astronomical Twilight
Moon
Length of Visible Light
Length of Day
Tomorrow will be .
, % of the Moon is Illuminated

Today's Extremes

Country Highs Country Lows

Community

WunderPhotos

Upload Photos

1,835,939 photos uploaded!

WunderBlogs® & News

Nearby

Air Quality

  Air Quality AQ Index Pollutant
Not available.

Snow Depth

Station Depth Elevation

Earthquake Activity

City Distance Mag. Time & Date
Minimum magnitude displayed is 2.5.

Coastal Water Temperatures

Place Temperature

Stations

Nearby Weather Stations

Station Location Temp. Windchill Dew Point Humidity Wind Precip. Elev Updated Type